Time;durP1;ratioP1;P1;durP2;ratioP2;P2;SDS_P1;SDS_P2;PMS_P1;PMS_P2;Temp;Humidity;BMP_temperature;BMP_pressure;BME280_temperature;BME280_humidity;BME280_pressure;Samples;Min_cycle;Max_cycle;Signal;HPM_P1;HPM_P2
2022/03/07 00:02:21;;;;;;;14.77;12.93;;;;;;;;;;5049607;28;20257;-79
2022/03/07 00:04:50;;;;;;;17.17;14.53;;;;;;;;;;5048657;28;20200;-79
2022/03/07 00:07:19;;;;;;;15.87;13.70;;;;;;;;;;5045111;28;20219;-78
2022/03/07 00:09:47;;;;;;;17.90;13.70;;;;;;;;;;5057290;28;20203;-78
2022/03/07 00:12:15;;;;;;;15.20;13.60;;;;;;;;;;5046554;28;20705;-76
2022/03/07 00:14:44;;;;;;;14.50;13.00;;;;;;;;;;5041005;28;20290;-77
2022/03/07 00:17:12;;;;;;;17.23;13.57;;;;;;;;;;5042157;28;20220;-77
2022/03/07 00:19:42;;;;;;;16.37;13.27;;;;;;;;;;5052644;28;20203;-77
2022/03/07 00:22:10;;;;;;;15.37;13.07;;;;;;;;;;5062399;28;20203;-77
2022/03/07 00:24:39;;;;;;;16.07;13.87;;;;;;;;;;5055076;28;20201;-77
2022/03/07 00:27:07;;;;;;;14.97;13.37;;;;;;;;;;5046530;28;20261;-77
2022/03/07 00:29:36;;;;;;;15.13;12.83;;;;;;;;;;5061361;28;20658;-77
2022/03/07 00:32:05;;;;;;;15.43;13.77;;;;;;;;;;5059969;28;20206;-77
2022/03/07 00:34:34;;;;;;;15.57;13.83;;;;;;;;;;5061771;28;20227;-78
2022/03/07 00:37:04;;;;;;;17.17;14.20;;;;;;;;;;5051432;28;20731;-78
2022/03/07 00:39:32;;;;;;;15.63;13.93;;;;;;;;;;5043166;28;20204;-77
2022/03/07 00:42:01;;;;;;;16.93;14.50;;;;;;;;;;5062574;28;20230;-78
2022/03/07 00:44:29;;;;;;;17.17;14.53;;;;;;;;;;5046608;28;20204;-78
2022/03/07 00:46:58;;;;;;;17.50;15.00;;;;;;;;;;5044149;28;20227;-78
2022/03/07 00:49:26;;;;;;;17.40;15.50;;;;;;;;;;5042460;28;20215;-77
2022/03/07 00:51:54;;;;;;;17.73;15.37;;;;;;;;;;5043748;28;20258;-78
2022/03/07 00:54:24;;;;;;;20.10;15.50;;;;;;;;;;5050839;28;20249;-78
2022/03/07 00:56:53;;;;;;;17.67;14.70;;;;;;;;;;5050592;28;20224;-77
2022/03/07 00:59:21;;;;;;;16.90;14.07;;;;;;;;;;5043607;28;20210;-77
2022/03/07 01:01:50;;;;;;;18.03;15.17;;;;;;;;;;5044267;28;20207;-79
2022/03/07 01:04:18;;;;;;;17.03;14.77;;;;;;;;;;5057408;28;20230;-77
2022/03/07 01:06:47;;;;;;;17.50;14.40;;;;;;;;;;5062295;28;20257;-78
2022/03/07 01:09:19;;;;;;;16.80;14.17;;;;;;;;;;5052216;28;20208;-77
2022/03/07 01:11:49;;;;;;;17.23;14.47;;;;;;;;;;5050227;28;20215;-77
2022/03/07 01:14:17;;;;;;;17.87;14.70;;;;;;;;;;5052710;28;20215;-77
2022/03/07 01:16:46;;;;;;;18.30;15.03;;;;;;;;;;5052017;28;20240;-78
2022/03/07 01:19:14;;;;;;;15.90;13.97;;;;;;;;;;5064088;28;20199;-77
2022/03/07 01:21:43;;;;;;;17.53;14.97;;;;;;;;;;5055811;28;20204;-77
2022/03/07 01:24:12;;;;;;;19.03;14.83;;;;;;;;;;5064727;28;20210;-77
2022/03/07 01:26:40;;;;;;;15.87;14.20;;;;;;;;;;5048134;28;20254;-77
2022/03/07 01:29:10;;;;;;;15.77;14.07;;;;;;;;;;5048066;28;20248;-77
2022/03/07 01:31:38;;;;;;;16.83;13.60;;;;;;;;;;5057876;28;20230;-77
2022/03/07 01:34:07;;;;;;;15.80;14.10;;;;;;;;;;5065519;28;20225;-76
2022/03/07 01:36:35;;;;;;;15.53;13.90;;;;;;;;;;5049693;28;20225;-77
2022/03/07 01:39:04;;;;;;;16.00;14.30;;;;;;;;;;5051580;28;20208;-77
2022/03/07 01:41:33;;;;;;;16.67;14.87;;;;;;;;;;5046161;28;20204;-77
2022/03/07 01:44:02;;;;;;;18.43;15.77;;;;;;;;;;5047710;28;20204;-77
2022/03/07 01:46:33;;;;;;;17.93;15.83;;;;;;;;;;5055568;28;20216;-77
2022/03/07 01:49:01;;;;;;;17.43;15.17;;;;;;;;;;5048983;28;20196;-77
2022/03/07 01:51:30;;;;;;;20.23;15.63;;;;;;;;;;5046876;28;20199;-77
2022/03/07 01:53:58;;;;;;;16.93;14.90;;;;;;;;;;5065043;28;20656;-76
2022/03/07 01:56:29;;;;;;;17.80;14.90;;;;;;;;;;5059335;28;20238;-77
2022/03/07 01:58:57;;;;;;;19.47;16.50;;;;;;;;;;5045825;28;20199;-77
2022/03/07 02:01:26;;;;;;;18.27;14.73;;;;;;;;;;5045838;28;20217;-77
2022/03/07 02:03:56;;;;;;;17.80;15.50;;;;;;;;;;5050569;28;20210;-77
2022/03/07 02:06:24;;;;;;;19.87;15.50;;;;;;;;;;5060491;28;20224;-77
2022/03/07 02:08:53;;;;;;;20.07;16.70;;;;;;;;;;5062386;28;20200;-77
2022/03/07 02:11:22;;;;;;;19.40;15.77;;;;;;;;;;5056782;28;20204;-77
2022/03/07 02:13:50;;;;;;;20.80;16.47;;;;;;;;;;5045811;28;20203;-76
2022/03/07 02:16:19;;;;;;;19.57;16.13;;;;;;;;;;5045264;28;20310;-77
2022/03/07 02:18:48;;;;;;;20.30;16.30;;;;;;;;;;5046222;28;20202;-76
2022/03/07 02:21:19;;;;;;;19.23;15.93;;;;;;;;;;5045919;28;20204;-77
2022/03/07 02:23:48;;;;;;;17.93;15.97;;;;;;;;;;5047493;28;20234;-77
2022/03/07 02:26:17;;;;;;;17.77;15.70;;;;;;;;;;5054599;28;20254;-77
2022/03/07 02:28:46;;;;;;;18.13;15.87;;;;;;;;;;5051579;28;20262;-77
2022/03/07 02:31:18;;;;;;;18.07;15.27;;;;;;;;;;5045596;28;20215;-78
2022/03/07 02:33:46;;;;;;;20.77;15.73;;;;;;;;;;5058780;28;20216;-77
2022/03/07 02:36:15;;;;;;;18.63;15.97;;;;;;;;;;5063892;28;20228;-76
2022/03/07 02:38:43;;;;;;;19.37;15.77;;;;;;;;;;5057482;28;20204;-77
2022/03/07 02:41:13;;;;;;;18.53;15.97;;;;;;;;;;5049742;28;20601;-77
2022/03/07 02:43:43;;;;;;;18.30;16.00;;;;;;;;;;5045623;28;20258;-78
2022/03/07 02:46:12;;;;;;;19.10;16.70;;;;;;;;;;5052884;28;20254;-77
2022/03/07 02:48:40;;;;;;;20.77;16.87;;;;;;;;;;5055119;28;20208;-77
2022/03/07 02:51:09;;;;;;;23.63;17.70;;;;;;;;;;5058417;28;20238;-77
2022/03/07 02:53:37;;;;;;;19.67;17.30;;;;;;;;;;5044786;28;20207;-77
2022/03/07 02:56:06;;;;;;;21.80;17.50;;;;;;;;;;5045066;28;20232;-77
2022/03/07 02:58:35;;;;;;;20.17;17.30;;;;;;;;;;5050630;28;20197;-77
2022/03/07 03:01:05;;;;;;;19.20;16.53;;;;;;;;;;5053615;28;20205;-77
2022/03/07 03:03:34;;;;;;;20.00;17.63;;;;;;;;;;5061020;28;20205;-77
2022/03/07 03:06:03;;;;;;;24.40;19.53;;;;;;;;;;5077255;28;20256;-79
2022/03/07 03:08:31;;;;;;;22.93;17.97;;;;;;;;;;5087384;28;20207;-77
2022/03/07 03:11:01;;;;;;;21.97;17.73;;;;;;;;;;5063156;28;20667;-77
2022/03/07 03:13:29;;;;;;;22.87;17.70;;;;;;;;;;5049274;28;20205;-77
2022/03/07 03:15:59;;;;;;;19.60;17.50;;;;;;;;;;5051253;28;20251;-77
2022/03/07 03:18:28;;;;;;;23.87;18.73;;;;;;;;;;5050979;28;20201;-77
2022/03/07 03:20:56;;;;;;;21.80;18.43;;;;;;;;;;5067454;28;20261;-77
2022/03/07 03:23:25;;;;;;;21.53;17.90;;;;;;;;;;5069125;28;20215;-78
2022/03/07 03:25:55;;;;;;;21.20;17.27;;;;;;;;;;5069877;28;20225;-77
2022/03/07 03:28:23;;;;;;;20.57;17.37;;;;;;;;;;5069452;28;20206;-77
2022/03/07 03:30:52;;;;;;;25.50;18.17;;;;;;;;;;5065429;28;20559;-79
2022/03/07 03:33:22;;;;;;;20.80;17.80;;;;;;;;;;5057195;28;20228;-77
2022/03/07 03:35:51;;;;;;;22.73;18.23;;;;;;;;;;5054196;28;20223;-78
2022/03/07 03:38:19;;;;;;;21.23;17.13;;;;;;;;;;5060111;28;20232;-77
2022/03/07 03:40:48;;;;;;;19.73;16.90;;;;;;;;;;5052819;28;20218;-77
2022/03/07 03:43:16;;;;;;;22.67;18.47;;;;;;;;;;5048633;28;20238;-78
2022/03/07 03:45:44;;;;;;;24.90;18.33;;;;;;;;;;5056492;28;20220;-77
2022/03/07 03:48:13;;;;;;;25.67;19.67;;;;;;;;;;5068106;28;20208;-78
2022/03/07 03:50:43;;;;;;;21.07;18.33;;;;;;;;;;5053912;28;20212;-77
2022/03/07 03:53:11;;;;;;;24.57;19.27;;;;;;;;;;5052325;28;20287;-77
2022/03/07 03:55:40;;;;;;;20.97;17.97;;;;;;;;;;5064629;28;20203;-78
2022/03/07 03:58:08;;;;;;;21.30;18.40;;;;;;;;;;5068093;28;20212;-77
2022/03/07 04:00:36;;;;;;;22.60;18.43;;;;;;;;;;5053189;28;20205;-77
2022/03/07 04:03:06;;;;;;;23.27;18.67;;;;;;;;;;5067617;28;20218;-77
2022/03/07 04:05:35;;;;;;;21.70;17.73;;;;;;;;;;5068056;28;20240;-77
2022/03/07 04:08:05;;;;;;;23.57;18.63;;;;;;;;;;5054928;28;20281;-78
2022/03/07 04:10:33;;;;;;;21.43;17.83;;;;;;;;;;5049698;28;20204;-77
2022/03/07 04:13:02;;;;;;;21.13;17.83;;;;;;;;;;5051097;28;20667;-77
2022/03/07 04:15:30;;;;;;;21.13;17.30;;;;;;;;;;5052609;28;20204;-77
2022/03/07 04:17:58;;;;;;;19.67;17.57;;;;;;;;;;5068031;28;20684;-77
2022/03/07 04:20:27;;;;;;;22.03;18.33;;;;;;;;;;5058181;28;20208;-77
2022/03/07 04:22:55;;;;;;;21.83;19.10;;;;;;;;;;5058701;28;20205;-77
2022/03/07 04:25:25;;;;;;;20.73;18.20;;;;;;;;;;5052401;28;20204;-77
2022/03/07 04:27:54;;;;;;;21.93;18.77;;;;;;;;;;5067693;28;20219;-77
2022/03/07 04:30:23;;;;;;;22.97;19.00;;;;;;;;;;5059024;28;20216;-77
2022/03/07 04:32:51;;;;;;;23.37;18.37;;;;;;;;;;5050782;28;20203;-77
2022/03/07 04:35:20;;;;;;;22.13;18.87;;;;;;;;;;5063836;28;20230;-77
2022/03/07 04:37:53;;;;;;;26.33;18.53;;;;;;;;;;5066608;28;20243;-77
2022/03/07 04:40:22;;;;;;;23.17;18.63;;;;;;;;;;5066266;28;20207;-77
2022/03/07 04:42:55;;;;;;;24.17;19.07;;;;;;;;;;5051658;28;20203;-77
2022/03/07 04:45:25;;;;;;;21.37;18.13;;;;;;;;;;5046719;28;20201;-77
2022/03/07 04:47:53;;;;;;;21.93;18.20;;;;;;;;;;5046614;28;20269;-77
2022/03/07 04:50:22;;;;;;;22.03;18.40;;;;;;;;;;5047295;28;20262;-77
2022/03/07 04:52:50;;;;;;;22.37;18.27;;;;;;;;;;5059674;28;20204;-77
2022/03/07 04:55:19;;;;;;;21.10;18.17;;;;;;;;;;5061300;28;20562;-76
2022/03/07 04:57:47;;;;;;;23.60;18.37;;;;;;;;;;5057675;28;20223;-76
2022/03/07 05:00:17;;;;;;;23.23;18.33;;;;;;;;;;5050110;28;20254;-78
2022/03/07 05:02:46;;;;;;;25.90;19.87;;;;;;;;;;5046609;28;20203;-77
2022/03/07 05:05:15;;;;;;;24.23;19.37;;;;;;;;;;5044653;28;20196;-76
2022/03/07 05:07:43;;;;;;;21.70;17.83;;;;;;;;;;5047267;28;20215;-77
2022/03/07 05:10:12;;;;;;;25.27;19.03;;;;;;;;;;5046051;28;20204;-77
2022/03/07 05:12:40;;;;;;;24.73;18.97;;;;;;;;;;5043205;28;20226;-77
2022/03/07 05:15:09;;;;;;;23.87;19.13;;;;;;;;;;5044679;28;20212;-78
2022/03/07 05:17:43;;;;;;;24.60;19.20;;;;;;;;;;5047310;28;20228;-78
2022/03/07 05:20:12;;;;;;;22.03;18.13;;;;;;;;;;5045033;28;20207;-77
2022/03/07 05:22:41;;;;;;;25.03;19.00;;;;;;;;;;5043723;28;20204;-77
2022/03/07 05:25:10;;;;;;;21.63;18.87;;;;;;;;;;5046363;28;20225;-78
2022/03/07 05:27:39;;;;;;;21.80;18.10;;;;;;;;;;5061127;28;20223;-77
2022/03/07 05:30:08;;;;;;;23.67;18.77;;;;;;;;;;5048161;28;20265;-77
2022/03/07 05:32:37;;;;;;;20.67;18.00;;;;;;;;;;5041314;28;20212;-77
2022/03/07 05:35:07;;;;;;;24.53;18.37;;;;;;;;;;5043887;28;20208;-77
2022/03/07 05:37:36;;;;;;;21.10;18.43;;;;;;;;;;5046065;28;20236;-77
2022/03/07 05:40:06;;;;;;;20.93;17.43;;;;;;;;;;5051814;28;20207;-77
2022/03/07 05:42:35;;;;;;;25.47;18.43;;;;;;;;;;5059085;28;20210;-76
2022/03/07 05:45:04;;;;;;;22.60;18.03;;;;;;;;;;5046382;28;20226;-76
2022/03/07 05:47:32;;;;;;;23.10;18.10;;;;;;;;;;5061891;28;20628;-78
2022/03/07 05:50:01;;;;;;;27.57;18.70;;;;;;;;;;5043285;28;20204;-77
2022/03/07 05:52:31;;;;;;;23.13;18.27;;;;;;;;;;5039748;28;20199;-78
2022/03/07 05:54:59;;;;;;;25.53;18.63;;;;;;;;;;5038044;28;20204;-79
2022/03/07 05:57:28;;;;;;;22.93;18.73;;;;;;;;;;5038455;28;20301;-76
2022/03/07 05:59:56;;;;;;;21.43;17.43;;;;;;;;;;5037413;28;20196;-78
2022/03/07 06:02:25;;;;;;;22.97;18.23;;;;;;;;;;5035960;28;20204;-77
2022/03/07 06:04:53;;;;;;;20.70;16.53;;;;;;;;;;5034850;28;20666;-77
2022/03/07 06:07:22;;;;;;;21.20;16.90;;;;;;;;;;5034816;28;20220;-77
2022/03/07 06:09:52;;;;;;;21.83;17.87;;;;;;;;;;5048583;28;20217;-79
2022/03/07 06:12:20;;;;;;;18.43;16.23;;;;;;;;;;5050836;28;20619;-76
2022/03/07 06:14:49;;;;;;;22.40;17.37;;;;;;;;;;5052032;28;20190;-78
2022/03/07 06:17:17;;;;;;;23.23;18.70;;;;;;;;;;5035329;28;20235;-77
2022/03/07 06:19:46;;;;;;;25.17;18.97;;;;;;;;;;5038539;28;20200;-78
2022/03/07 06:22:14;;;;;;;25.77;18.97;;;;;;;;;;5048648;28;20647;-77
2022/03/07 06:24:43;;;;;;;31.53;19.93;;;;;;;;;;5053517;28;20234;-77
2022/03/07 06:27:12;;;;;;;39.63;22.57;;;;;;;;;;5040979;28;20718;-77
2022/03/07 06:29:41;;;;;;;35.20;21.67;;;;;;;;;;5050029;28;20280;-77
2022/03/07 06:32:10;;;;;;;39.53;23.23;;;;;;;;;;5052682;28;20577;-78
2022/03/07 06:34:38;;;;;;;42.00;23.30;;;;;;;;;;5041830;28;20707;-76
2022/03/07 06:37:07;;;;;;;43.17;24.27;;;;;;;;;;5056144;28;20279;-77
2022/03/07 06:39:36;;;;;;;42.27;24.40;;;;;;;;;;5066678;28;20198;-78
2022/03/07 06:42:05;;;;;;;50.77;26.13;;;;;;;;;;5054957;28;20257;-78
2022/03/07 06:44:39;;;;;;;59.17;28.00;;;;;;;;;;5044809;28;20211;-77
2022/03/07 06:47:08;;;;;;;62.27;28.50;;;;;;;;;;5052899;28;20246;-78
2022/03/07 06:49:37;;;;;;;53.30;28.60;;;;;;;;;;5045067;28;20253;-77
2022/03/07 06:52:05;;;;;;;84.87;30.03;;;;;;;;;;5042503;28;20208;-77
2022/03/07 06:54:34;;;;;;;64.20;28.87;;;;;;;;;;5048671;28;20212;-79
2022/03/07 06:57:03;;;;;;;72.67;30.83;;;;;;;;;;5039702;28;20699;-77
2022/03/07 06:59:32;;;;;;;75.30;31.67;;;;;;;;;;5040671;28;20227;-78
2022/03/07 07:02:01;;;;;;;62.13;30.37;;;;;;;;;;5040611;28;20208;-78
2022/03/07 07:04:30;;;;;;;64.40;30.80;;;;;;;;;;5041620;28;20194;-79
2022/03/07 07:06:59;;;;;;;59.50;29.97;;;;;;;;;;5040825;28;20259;-78
2022/03/07 07:09:28;;;;;;;59.87;30.70;;;;;;;;;;5053414;28;20660;-79
2022/03/07 07:11:56;;;;;;;54.03;29.53;;;;;;;;;;5054389;28;20668;-77
2022/03/07 07:14:25;;;;;;;72.93;33.27;;;;;;;;;;5038362;28;20640;-77
2022/03/07 07:16:54;;;;;;;80.53;35.00;;;;;;;;;;5038429;28;20236;-79
2022/03/07 07:19:24;;;;;;;71.10;36.93;;;;;;;;;;5037912;28;20231;-77
2022/03/07 07:21:53;;;;;;;75.27;37.30;;;;;;;;;;5038940;28;20215;-78
2022/03/07 07:24:21;;;;;;;75.20;35.37;;;;;;;;;;5038041;28;20197;-77
2022/03/07 07:26:49;;;;;;;67.90;33.60;;;;;;;;;;5038927;28;20287;-78
2022/03/07 07:29:18;;;;;;;60.90;32.57;;;;;;;;;;5038691;28;20671;-79
2022/03/07 07:31:47;;;;;;;62.33;31.97;;;;;;;;;;5038662;28;20205;-77
2022/03/07 07:34:15;;;;;;;55.67;32.13;;;;;;;;;;5038583;28;20250;-77
2022/03/07 07:36:45;;;;;;;53.73;30.53;;;;;;;;;;5041492;28;20695;-79
2022/03/07 07:39:13;;;;;;;54.73;27.47;;;;;;;;;;5049026;28;20280;-77
2022/03/07 07:41:42;;;;;;;50.27;26.37;;;;;;;;;;5066686;28;20212;-77
2022/03/07 07:44:10;;;;;;;50.23;26.30;;;;;;;;;;5064978;28;20207;-78
2022/03/07 07:46:38;;;;;;;50.03;25.73;;;;;;;;;;5067796;28;20243;-77
2022/03/07 07:49:07;;;;;;;50.43;28.17;;;;;;;;;;5067300;28;20235;-77
2022/03/07 07:51:35;;;;;;;49.03;25.77;;;;;;;;;;5064920;28;20202;-78
2022/03/07 07:54:05;;;;;;;48.60;26.27;;;;;;;;;;5061662;28;20207;-77
2022/03/07 07:56:34;;;;;;;56.23;26.93;;;;;;;;;;5048745;28;20292;-77
2022/03/07 07:59:03;;;;;;;58.07;26.73;;;;;;;;;;5048486;28;20224;-77
2022/03/07 08:01:31;;;;;;;56.23;27.07;;;;;;;;;;5047267;28;20203;-77
2022/03/07 08:04:01;;;;;;;51.13;25.60;;;;;;;;;;5058061;28;20210;-78
2022/03/07 08:06:30;;;;;;;62.70;27.90;;;;;;;;;;5072580;28;20222;-78
2022/03/07 08:08:58;;;;;;;54.00;27.00;;;;;;;;;;5085455;28;20201;-77
2022/03/07 08:11:29;;;;;;;78.77;29.67;;;;;;;;;;5083672;28;20200;-77
2022/03/07 08:13:57;;;;;;;70.83;28.37;;;;;;;;;;5086286;28;20183;-77
2022/03/07 08:16:26;;;;;;;90.03;29.63;;;;;;;;;;5082173;28;20286;-78
2022/03/07 08:18:54;;;;;;;82.17;29.87;;;;;;;;;;5081812;28;20232;-79
2022/03/07 08:21:25;;;;;;;67.93;28.83;;;;;;;;;;5079821;28;20263;-78
2022/03/07 08:23:54;;;;;;;67.67;27.57;;;;;;;;;;5075835;28;20231;-78
2022/03/07 08:26:23;;;;;;;56.60;28.53;;;;;;;;;;5062172;28;20238;-77
2022/03/07 08:28:53;;;;;;;53.40;27.33;;;;;;;;;;5067076;28;20289;-78
2022/03/07 08:31:22;;;;;;;51.70;28.13;;;;;;;;;;5068040;28;20214;-79
2022/03/07 08:33:50;;;;;;;49.63;26.87;;;;;;;;;;5065876;28;20293;-78
2022/03/07 08:36:19;;;;;;;51.87;27.40;;;;;;;;;;5058550;28;20276;-78
2022/03/07 08:38:47;;;;;;;56.83;30.20;;;;;;;;;;5057644;28;20229;-78
2022/03/07 08:41:16;;;;;;;54.63;31.30;;;;;;;;;;5059398;28;20335;-78
2022/03/07 08:43:45;;;;;;;53.33;29.67;;;;;;;;;;5063207;28;20212;-78
2022/03/07 08:46:15;;;;;;;46.50;26.73;;;;;;;;;;5044525;28;20585;-78
2022/03/07 08:48:43;;;;;;;46.30;27.07;;;;;;;;;;5038236;28;20255;-78
2022/03/07 08:51:12;;;;;;;43.27;25.40;;;;;;;;;;5037059;28;20210;-77
2022/03/07 08:53:40;;;;;;;47.27;27.30;;;;;;;;;;5037017;28;20217;-77
2022/03/07 08:56:08;;;;;;;50.77;33.00;;;;;;;;;;5037332;28;20247;-79
2022/03/07 08:58:54;;;;;;;46.47;27.13;;;;;;;;;;5036585;28;20207;-78
2022/03/07 09:01:24;;;;;;;51.97;28.77;;;;;;;;;;5036987;28;20582;-78
2022/03/07 09:03:53;;;;;;;44.53;27.27;;;;;;;;;;5045381;28;20199;-77
2022/03/07 09:06:21;;;;;;;46.17;27.90;;;;;;;;;;5058455;28;20218;-77
2022/03/07 09:08:50;;;;;;;43.60;27.40;;;;;;;;;;5057368;28;20297;-78
2022/03/07 09:11:22;;;;;;;51.03;27.90;;;;;;;;;;5058786;28;20214;-78
2022/03/07 09:13:51;;;;;;;40.07;26.80;;;;;;;;;;5058080;28;20687;-78
2022/03/07 09:16:19;;;;;;;46.47;25.87;;;;;;;;;;5063418;28;20296;-78
2022/03/07 09:18:49;;;;;;;44.67;26.33;;;;;;;;;;5059812;28;20199;-79
2022/03/07 09:21:17;;;;;;;41.40;27.50;;;;;;;;;;5063986;28;20213;-79
2022/03/07 09:23:46;;;;;;;44.87;27.80;;;;;;;;;;5066312;28;20237;-78
2022/03/07 09:26:15;;;;;;;40.93;25.27;;;;;;;;;;5066871;28;20225;-77
2022/03/07 09:28:43;;;;;;;35.10;24.60;;;;;;;;;;5060114;28;20199;-77
2022/03/07 09:31:12;;;;;;;40.57;26.77;;;;;;;;;;5057531;28;20229;-78
2022/03/07 09:33:40;;;;;;;40.00;25.70;;;;;;;;;;5051030;28;20212;-78
2022/03/07 09:36:10;;;;;;;40.03;25.33;;;;;;;;;;5036759;28;20622;-78
2022/03/07 09:38:39;;;;;;;39.23;26.00;;;;;;;;;;5037280;28;20272;-78
2022/03/07 09:41:07;;;;;;;39.97;26.60;;;;;;;;;;5040936;28;20226;-76
2022/03/07 09:43:36;;;;;;;40.60;24.67;;;;;;;;;;5042861;28;20194;-78
2022/03/07 09:46:04;;;;;;;41.43;25.53;;;;;;;;;;5057431;28;20221;-78
2022/03/07 09:48:33;;;;;;;36.47;24.50;;;;;;;;;;5057118;28;20226;-78
2022/03/07 09:51:01;;;;;;;34.80;24.80;;;;;;;;;;5056505;28;20207;-78
2022/03/07 09:53:32;;;;;;;36.33;24.00;;;;;;;;;;5052162;28;20686;-78
2022/03/07 09:56:01;;;;;;;33.43;24.20;;;;;;;;;;5058750;28;20208;-79
2022/03/07 09:58:29;;;;;;;33.87;24.20;;;;;;;;;;5062703;28;20211;-79
2022/03/07 10:01:07;;;;;;;38.50;24.67;;;;;;;;;;5065943;28;20218;-78
2022/03/07 10:03:35;;;;;;;34.43;23.00;;;;;;;;;;5064622;28;20191;-78
2022/03/07 10:06:12;;;;;;;34.90;23.17;;;;;;;;;;5066107;28;20223;-79
2022/03/07 10:08:52;;;;;;;34.83;22.90;;;;;;;;;;5062251;28;20239;-78
2022/03/07 10:11:20;;;;;;;33.23;22.77;;;;;;;;;;5043082;28;20553;-78
2022/03/07 10:13:52;;;;;;;30.83;21.70;;;;;;;;;;5065270;28;20208;-79
2022/03/07 10:16:21;;;;;;;27.23;20.87;;;;;;;;;;5065589;28;20228;-78
2022/03/07 10:18:50;;;;;;;27.77;21.83;;;;;;;;;;5064578;28;20563;-78
2022/03/07 10:21:22;;;;;;;28.10;20.97;;;;;;;;;;5062903;28;20222;-78
2022/03/07 10:23:55;;;;;;;27.13;20.80;;;;;;;;;;5041407;28;20211;-78
2022/03/07 10:26:25;;;;;;;29.23;20.87;;;;;;;;;;5042088;28;20570;-78
2022/03/07 10:28:54;;;;;;;28.33;20.30;;;;;;;;;;5039785;28;20218;-78
2022/03/07 10:31:37;;;;;;;26.27;20.53;;;;;;;;;;5042807;28;20188;-78
2022/03/07 10:34:07;;;;;;;27.00;19.67;;;;;;;;;;5044100;28;20204;-78
2022/03/07 10:36:36;;;;;;;25.33;18.97;;;;;;;;;;5044593;28;20227;-78
2022/03/07 10:39:07;;;;;;;21.77;17.23;;;;;;;;;;5050012;28;20562;-78
2022/03/07 10:41:36;;;;;;;22.27;18.03;;;;;;;;;;5065250;28;20207;-77
2022/03/07 10:44:06;;;;;;;24.03;16.97;;;;;;;;;;5065598;28;20622;-78
2022/03/07 10:46:34;;;;;;;21.40;16.70;;;;;;;;;;5064706;28;20697;-78
2022/03/07 10:49:04;;;;;;;21.20;16.43;;;;;;;;;;5062058;28;20627;-78
2022/03/07 10:51:32;;;;;;;23.20;17.00;;;;;;;;;;5040438;28;20203;-79
2022/03/07 10:54:10;;;;;;;21.57;17.80;;;;;;;;;;5044559;28;20230;-78
2022/03/07 10:56:49;;;;;;;20.17;17.00;;;;;;;;;;5043985;28;20230;-77
2022/03/07 10:59:27;;;;;;;19.37;16.60;;;;;;;;;;5045486;28;20827;-78
2022/03/07 11:02:00;;;;;;;18.67;16.00;;;;;;;;;;5064836;28;20211;-78
2022/03/07 11:04:29;;;;;;;20.30;16.03;;;;;;;;;;5065209;28;20247;-78
2022/03/07 11:06:58;;;;;;;18.13;16.20;;;;;;;;;;5065150;28;20223;-79
2022/03/07 11:09:28;;;;;;;20.87;16.07;;;;;;;;;;5054070;28;20238;-77
2022/03/07 11:11:57;;;;;;;17.93;15.37;;;;;;;;;;5044837;28;20196;-79
2022/03/07 11:14:27;;;;;;;18.10;15.40;;;;;;;;;;5041965;28;20203;-79
2022/03/07 11:16:57;;;;;;;17.43;15.50;;;;;;;;;;5044592;28;20223;-78
2022/03/07 11:19:26;;;;;;;17.80;15.67;;;;;;;;;;5041871;28;20208;-78
2022/03/07 11:21:55;;;;;;;18.77;16.77;;;;;;;;;;5042525;28;20231;-78
2022/03/07 11:24:25;;;;;;;20.97;17.60;;;;;;;;;;5043597;28;20199;-79
2022/03/07 11:26:56;;;;;;;22.10;17.23;;;;;;;;;;5047289;28;20224;-78
2022/03/07 11:29:34;;;;;;;17.67;15.83;;;;;;;;;;5046589;28;20211;-78
2022/03/07 11:32:04;;;;;;;19.13;16.37;;;;;;;;;;5048041;28;20210;-78
2022/03/07 11:34:33;;;;;;;18.47;16.57;;;;;;;;;;5047883;28;20234;-78
2022/03/07 11:37:02;;;;;;;19.83;16.53;;;;;;;;;;5046576;28;20227;-79
2022/03/07 11:39:33;;;;;;;17.20;15.07;;;;;;;;;;5056663;28;20264;-78
2022/03/07 11:42:13;;;;;;;17.10;15.30;;;;;;;;;;5047681;28;20583;-79
2022/03/07 11:44:42;;;;;;;16.60;14.60;;;;;;;;;;5047948;28;20187;-79
2022/03/07 11:47:12;;;;;;;17.03;14.03;;;;;;;;;;5047228;28;20266;-79
2022/03/07 11:49:40;;;;;;;15.80;13.77;;;;;;;;;;5048728;28;20226;-78
2022/03/07 11:52:10;;;;;;;16.57;14.87;;;;;;;;;;5048307;28;20252;-79
2022/03/07 11:54:51;;;;;;;19.47;14.43;;;;;;;;;;5047176;28;20230;-78
2022/03/07 11:57:32;;;;;;;16.13;14.53;;;;;;;;;;5048730;28;20231;-79
2022/03/07 12:00:10;;;;;;;22.10;15.10;;;;;;;;;;5050632;28;20206;-79
2022/03/07 12:02:43;;;;;;;15.83;14.13;;;;;;;;;;5068221;28;20194;-79
2022/03/07 12:05:25;;;;;;;18.70;15.23;;;;;;;;;;5067480;28;20196;-79
2022/03/07 12:07:54;;;;;;;16.60;14.80;;;;;;;;;;5067802;28;20250;-79
2022/03/07 12:10:22;;;;;;;18.57;15.20;;;;;;;;;;5054409;28;20670;-78
2022/03/07 12:12:52;;;;;;;17.97;14.33;;;;;;;;;;5066519;28;20203;-80
2022/03/07 12:15:44;;;;;;;15.80;14.13;;;;;;;;;;5066469;28;20237;-79
2022/03/07 12:18:12;;;;;;;15.43;13.53;;;;;;;;;;5067252;28;20203;-80
2022/03/07 12:20:48;;;;;;;15.10;13.57;;;;;;;;;;5067626;28;20222;-79
2022/03/07 12:23:17;;;;;;;16.60;14.03;;;;;;;;;;5067206;28;20212;-79
2022/03/07 12:25:46;;;;;;;15.77;14.17;;;;;;;;;;5066980;28;20211;-80
2022/03/07 12:28:15;;;;;;;16.83;13.87;;;;;;;;;;5068347;28;20203;-78
2022/03/07 12:30:44;;;;;;;15.67;13.60;;;;;;;;;;5067569;28;20203;-80
2022/03/07 12:33:13;;;;;;;16.23;14.50;;;;;;;;;;5055058;28;20211;-81
2022/03/07 12:35:41;;;;;;;20.27;15.67;;;;;;;;;;5047318;28;20214;-79
2022/03/07 12:38:10;;;;;;;18.70;15.40;;;;;;;;;;5046491;28;20207;-78
2022/03/07 12:40:38;;;;;;;18.00;15.30;;;;;;;;;;5052250;28;20195;-79
2022/03/07 12:43:08;;;;;;;16.70;14.87;;;;;;;;;;5067863;28;20203;-79
2022/03/07 12:45:46;;;;;;;14.90;13.30;;;;;;;;;;5066372;28;20202;-80
2022/03/07 12:48:15;;;;;;;19.33;16.20;;;;;;;;;;5056803;28;20206;-79
2022/03/07 12:50:43;;;;;;;21.83;17.53;;;;;;;;;;5047669;28;20204;-79
2022/03/07 12:53:13;;;;;;;20.80;16.40;;;;;;;;;;5045813;28;20666;-79
2022/03/07 12:55:41;;;;;;;18.57;16.07;;;;;;;;;;5047295;28;20206;-79
2022/03/07 12:58:11;;;;;;;16.93;14.10;;;;;;;;;;5047298;28;20212;-79
2022/03/07 13:00:40;;;;;;;19.80;15.20;;;;;;;;;;5066196;28;20195;-79
2022/03/07 13:03:10;;;;;;;25.37;16.47;;;;;;;;;;5067591;28;20264;-79
2022/03/07 13:05:38;;;;;;;17.37;14.33;;;;;;;;;;5067380;28;20210;-78
2022/03/07 13:08:06;;;;;;;12.60;11.20;;;;;;;;;;5060428;28;20258;-79
2022/03/07 13:10:35;;;;;;;14.40;12.07;;;;;;;;;;5067230;28;20216;-81
2022/03/07 13:13:04;;;;;;;16.13;12.77;;;;;;;;;;5066941;28;20213;-80
2022/03/07 13:15:41;;;;;;;16.27;12.50;;;;;;;;;;5066683;28;20233;-81
2022/03/07 13:18:11;;;;;;;13.20;11.30;;;;;;;;;;5066610;28;20696;-80
2022/03/07 13:20:40;;;;;;;16.97;12.13;;;;;;;;;;5055980;28;20198;-80
2022/03/07 13:23:09;;;;;;;14.27;12.57;;;;;;;;;;5087225;28;20202;-79
2022/03/07 13:25:38;;;;;;;15.13;12.97;;;;;;;;;;5086376;28;20205;-80
2022/03/07 13:28:10;;;;;;;16.00;12.53;;;;;;;;;;5087036;28;20281;-80
2022/03/07 13:30:39;;;;;;;13.40;11.67;;;;;;;;;;5048412;28;20208;-80
2022/03/07 13:33:09;;;;;;;14.10;12.40;;;;;;;;;;5078480;28;20237;-79
2022/03/07 13:35:55;;;;;;;14.43;11.07;;;;;;;;;;5086264;28;20194;-79
2022/03/07 13:38:24;;;;;;;14.43;11.40;;;;;;;;;;5076021;28;20210;-79
2022/03/07 13:40:53;;;;;;;15.63;12.07;;;;;;;;;;5067845;28;20274;-80
2022/03/07 13:43:28;;;;;;;12.83;11.00;;;;;;;;;;5064503;28;20221;-80
2022/03/07 13:45:57;;;;;;;14.03;11.40;;;;;;;;;;5049388;28;20191;-79
2022/03/07 13:48:26;;;;;;;16.03;11.37;;;;;;;;;;5055199;28;20553;-79
2022/03/07 13:50:56;;;;;;;14.53;11.13;;;;;;;;;;5069168;28;20199;-79
2022/03/07 13:53:25;;;;;;;12.97;10.47;;;;;;;;;;5066487;28;20206;-80
2022/03/07 13:55:56;;;;;;;12.50;10.70;;;;;;;;;;5083139;28;20202;-79
2022/03/07 13:58:29;;;;;;;12.50;10.43;;;;;;;;;;5074142;28;20213;-80
2022/03/07 14:01:04;;;;;;;11.77;10.50;;;;;;;;;;5077299;28;20259;-80
2022/03/07 14:03:52;;;;;;;12.93;10.97;;;;;;;;;;5063524;28;20217;-79
2022/03/07 14:06:24;;;;;;;12.33;10.27;;;;;;;;;;5072726;28;20627;-80
2022/03/07 14:08:52;;;;;;;13.67;10.43;;;;;;;;;;5068527;28;20194;-81
2022/03/07 14:11:21;;;;;;;12.83;10.10;;;;;;;;;;5065876;28;20203;-80
2022/03/07 14:13:52;;;;;;;9.27;8.20;;;;;;;;;;5052691;28;20264;-80
2022/03/07 14:16:21;;;;;;;11.03;8.23;;;;;;;;;;5046078;28;20245;-80
2022/03/07 14:18:51;;;;;;;11.47;9.03;;;;;;;;;;5055780;28;20195;-81
2022/03/07 14:21:20;;;;;;;9.47;8.03;;;;;;;;;;5047283;28;20937;-81
2022/03/07 14:24:06;;;;;;;11.20;8.00;;;;;;;;;;5044920;28;20211;-81
2022/03/07 14:26:34;;;;;;;9.83;7.63;;;;;;;;;;5045850;28;20231;-81
2022/03/07 14:29:09;;;;;;;9.60;8.43;;;;;;;;;;5043788;28;20204;-81
2022/03/07 14:31:38;;;;;;;10.47;5.70;;;;;;;;;;5044772;28;20246;-81
2022/03/07 14:34:07;;;;;;;7.03;5.50;;;;;;;;;;5044031;28;20204;-80